Langruth, Canada
Current Conditions -  °F | °C
As of 2:00 PM on Thursday 23 Oct 2014 (Local Time) from CYPG Reporting Station
Scattered Clouds Scattered Clouds  
Wind Chill: 16°   Ceiling: Unl
Heat Index: 16°   Visibility: 15mi
Dew Point:   Wind: 13mph
Humidity: 52%   Direction: 230°SW
Pressure: 29.76"   Gusts: NA
Location:  50.38°N, 98.67°W
Report Text: CYPG 231900Z 23011KT 15SM SCT220 16/06 A2976 RMK CI2 SLP081
Loading
Personal Weather Stations






























Interactive Weather Map
Tropical Storm Tracking
New forecast layout! Learn more

10-Day Weather Forecast

Advertisements
Track Severe Weather on mobile